Wylde Swan — PIWS — position and weather

sailwx.info

Track history (hours):
 
Tides and Currents Weather Stations Pressure Air Temp Water Temp Dewpoint Dewpoint Depression Visibility Wind Speed Wind Dir Waves Ship Positions

Wylde Swan

Last reported at 2019-Mar-01 23:48 UTC. Time now 2019-Apr-26 03:43 UTC.
Position N 14°32' W 061°37'.
Warning: this ship's position is 55 days out of date.

Length 45 m; draft 3.3 m.

Type: . MMSI: 244074000.

Date/timePositionNaut miles runAvg speedWind from/ knotsBaromVisibWave heightAir tempDewpointWater temp
2019-Mar-01 23:48N 14°32' W 061°37'12 8.5
2019-Mar-01 22:23N 14°44' W 061°36'  
2019-Feb-22 20:07N 16°55' W 062°34'1 7.2
2019-Feb-22 19:57N 16°56' W 062°35'5 7.6
2019-Feb-22 19:20N 16°60' W 062°38'2 2.2
2019-Feb-22 18:24N 17°00' W 062°39'3 6.4
2019-Feb-22 17:59N 16°58' W 062°39'23 2.3
2019-Feb-22 08:01N 17°16' W 062°54'0 3.7
2019-Feb-22 08:00N 17°16' W 062°54'2 3.5
2019-Feb-22 07:30N 17°17' W 062°55'2 3.5
2019-Feb-22 06:57N 17°19' W 062°56'2 4.4
2019-Feb-22 06:30N 17°20' W 062°57'3 5.0
2019-Feb-22 05:56N 17°23' W 062°59'2 5.7
2019-Feb-22 05:29N 17°25' W 063°00'2 4.3
2019-Feb-22 05:00N 17°27' W 063°01'2 4.7
2019-Feb-22 04:30N 17°29' W 063°02'3 6.7
2019-Feb-22 04:00N 17°32' W 063°03'4 7.1
2019-Feb-22 03:30N 17°36' W 063°04'4 7.9
2019-Feb-22 03:00N 17°40' W 063°04'3 6.2
2019-Feb-22 02:30N 17°43' W 063°04'2 3.7
2019-Feb-22 02:00N 17°44' W 063°05'2 3.5
2019-Feb-22 01:29N 17°46' W 063°05'3 6.5
2019-Feb-22 01:00N 17°49' W 063°05'3 4.9
2019-Feb-22 00:28N 17°52' W 063°06'3 5.5
2019-Feb-21 23:58N 17°55' W 063°07'3 5.7
2019-Feb-21 23:30N 17°57' W 063°08'3 5.5
2019-Feb-21 23:00N 17°60' W 063°09'2 4.6
2019-Feb-21 22:30N 18°02' W 063°10'2 4.2
2019-Feb-21 22:00N 18°04' W 063°10'2 3.4
2019-Feb-21 21:29N 18°05' W 063°08'2 4.4
2019-Feb-21 21:00N 18°05' W 063°06'1 0.8
2019-Feb-21 20:20N 18°04' W 063°06'0 0.0
2019-Feb-21 19:50N 18°04' W 063°06'0 0.1
2019-Feb-21 19:20N 18°04' W 063°06'0 0.0
2019-Feb-21 18:53N 18°04' W 063°06'0 0.0
2019-Feb-21 18:20N 18°04' W 063°06'0 0.0
2019-Feb-21 17:53N 18°04' W 063°06'0 0.0
2019-Feb-21 17:20N 18°04' W 063°06'0 0.0
2019-Feb-21 16:53N 18°04' W 063°06'0 0.0
2019-Feb-21 16:11N 18°04' W 063°06'0 0.0
2019-Feb-21 15:56N 18°04' W 063°06'0 0.0
2019-Feb-21 15:26N 18°04' W 063°06'0 0.0
2019-Feb-21 14:53N 18°04' W 063°06'0 0.0
2019-Feb-21 14:23N 18°04' W 063°06'0 0.0
2019-Feb-21 13:56N 18°04' W 063°06'0 0.0
2019-Feb-21 13:23N 18°04' W 063°06'0 0.0
2019-Feb-21 12:56N 18°04' W 063°06'0 0.0
2019-Feb-21 12:29N 18°04' W 063°06'0 0.0
2019-Feb-21 11:59N 18°04' W 063°06'0 0.0
2019-Feb-21 11:29N 18°04' W 063°06'0 0.0
2019-Feb-21 10:59N 18°04' W 063°06'0 0.0
2019-Feb-21 10:29N 18°04' W 063°06'0 0.0
2019-Feb-21 09:59N 18°04' W 063°06'0 0.0
2019-Feb-21 09:29N 18°04' W 063°06'0 0.0
2019-Feb-21 08:59N 18°04' W 063°06'0 0.0
2019-Feb-21 08:29N 18°04' W 063°06'0 0.0
2019-Feb-21 07:59N 18°04' W 063°06'0 0.0
2019-Feb-21 07:29N 18°04' W 063°06'0 0.0
2019-Feb-21 06:59N 18°04' W 063°06'0 0.0
2019-Feb-21 06:20N 18°04' W 063°06'0 0.0
2019-Feb-21 05:50N 18°04' W 063°06'0 0.0
2019-Feb-21 05:20N 18°04' W 063°06'0 0.0
2019-Feb-21 04:53N 18°04' W 063°06'0 0.0
2019-Feb-21 04:23N 18°04' W 063°06'0 0.0
2019-Feb-21 03:53N 18°04' W 063°06'0 0.0
2019-Feb-21 03:23N 18°04' W 063°06'0 0.0
2019-Feb-21 02:53N 18°04' W 063°06'0 0.0
2019-Feb-21 02:26N 18°04' W 063°06'0 0.0
2019-Feb-21 01:56N 18°04' W 063°06'0 0.0
2019-Feb-21 01:26N 18°04' W 063°06'0 0.0
2019-Feb-21 00:56N 18°04' W 063°06'0 0.0
2019-Feb-21 00:23N 18°04' W 063°06'0 0.0
2019-Feb-20 23:56N 18°04' W 063°06'0 0.0
2019-Feb-20 23:29N 18°04' W 063°06'0 0.0
2019-Feb-20 22:55N 18°04' W 063°06'0 0.0
2019-Feb-20 22:22N 18°04' W 063°06'0 0.0
2019-Feb-20 21:52N 18°04' W 063°06'0 0.0
2019-Feb-20 21:25N 18°04' W 063°06'0 0.0
2019-Feb-20 20:19N 18°04' W 063°06'0 0.0
2019-Feb-20 19:52N 18°04' W 063°06'0 0.0
2019-Feb-20 19:04N 18°04' W 063°06'0 0.0
2019-Feb-20 18:49N 18°04' W 063°06'0 0.0
2019-Feb-20 17:52N 18°04' W 063°06'0 0.0
2019-Feb-20 17:10N 18°04' W 063°06'0 0.0
2019-Feb-20 16:52N 18°04' W 063°06'0 0.0
2019-Feb-20 16:25N 18°04' W 063°06'0 0.0
2019-Feb-20 15:37N 18°04' W 063°06'0 0.1
2019-Feb-20 15:22N 18°04' W 063°06'0 0.0
2019-Feb-20 14:52N 18°04' W 063°06'0 0.0
2019-Feb-20 14:28N 18°04' W 063°06'0 0.0
2019-Feb-20 13:58N 18°04' W 063°06'0 0.0
2019-Feb-20 12:58N 18°04' W 063°06'0 0.0
2019-Feb-20 12:28N 18°04' W 063°06'0 0.0
2019-Feb-20 11:31N 18°04' W 063°06'0 0.1
2019-Feb-20 11:28N 18°04' W 063°06'0 0.0
2019-Feb-20 10:58N 18°04' W 063°06'0 0.0
2019-Feb-20 10:28N 18°04' W 063°06'0 0.0
2019-Feb-20 09:46N 18°04' W 063°06'0 0.0
2019-Feb-20 09:28N 18°04' W 063°06'0 0.0
2019-Feb-20 08:58N 18°04' W 063°06'0 0.0
2019-Feb-20 08:28N 18°04' W 063°06'0 0.0
2019-Feb-20 07:58N 18°04' W 063°06'0 0.0
2019-Feb-20 07:19N 18°04' W 063°06'0 0.0
2019-Feb-20 06:49N 18°04' W 063°06'0 0.0
2019-Feb-20 06:19N 18°04' W 063°06'0 0.0
2019-Feb-20 05:49N 18°04' W 063°06'0 0.0
2019-Feb-20 05:19N 18°04' W 063°06'0 0.0
2019-Feb-20 04:34N 18°04' W 063°06'0 0.0
2019-Feb-20 04:22N 18°04' W 063°06'0 0.0
2019-Feb-20 03:37N 18°04' W 063°06'0 0.0
2019-Feb-20 02:40N 18°04' W 063°06'0 0.0
2019-Feb-20 02:22N 18°04' W 063°06'0 0.0
2019-Feb-20 00:40N 18°04' W 063°06'0 0.0
2019-Feb-20 00:28N 18°04' W 063°06'  
Track history (hours):
 
Tides and Currents Weather Stations Pressure Air Temp Water Temp Dewpoint Dewpoint Depression Visibility Wind Speed Wind Dir Waves Ship Positions

Wylde Swan

Last reported at 2019-Mar-01 23:48 UTC. Time now 2019-Apr-26 03:43 UTC.
Position N 14°32' W 061°37'.
Warning: this ship's position is 55 days out of date.

Length 45 m; draft 3.3 m.

Type: . MMSI: 244074000.

Date/timePositionNaut miles runAvg speedWind from/ knotsBaromVisibWave heightAir tempDewpointWater temp
2019-Mar-01 23:48N 14°32' W 061°37'12 8.5
2019-Mar-01 22:23N 14°44' W 061°36'  
2019-Feb-22 20:07N 16°55' W 062°34'1 7.2
2019-Feb-22 19:57N 16°56' W 062°35'5 7.6
2019-Feb-22 19:20N 16°60' W 062°38'2 2.2
2019-Feb-22 18:24N 17°00' W 062°39'3 6.4
2019-Feb-22 17:59N 16°58' W 062°39'23 2.3
2019-Feb-22 08:01N 17°16' W 062°54'0 3.7
2019-Feb-22 08:00N 17°16' W 062°54'2 3.5
2019-Feb-22 07:30N 17°17' W 062°55'2 3.5
2019-Feb-22 06:57N 17°19' W 062°56'2 4.4
2019-Feb-22 06:30N 17°20' W 062°57'3 5.0
2019-Feb-22 05:56N 17°23' W 062°59'2 5.7
2019-Feb-22 05:29N 17°25' W 063°00'2 4.3
2019-Feb-22 05:00N 17°27' W 063°01'2 4.7
2019-Feb-22 04:30N 17°29' W 063°02'3 6.7
2019-Feb-22 04:00N 17°32' W 063°03'4 7.1
2019-Feb-22 03:30N 17°36' W 063°04'4 7.9
2019-Feb-22 03:00N 17°40' W 063°04'3 6.2
2019-Feb-22 02:30N 17°43' W 063°04'2 3.7
2019-Feb-22 02:00N 17°44' W 063°05'2 3.5
2019-Feb-22 01:29N 17°46' W 063°05'3 6.5
2019-Feb-22 01:00N 17°49' W 063°05'3 4.9
2019-Feb-22 00:28N 17°52' W 063°06'3 5.5
2019-Feb-21 23:58N 17°55' W 063°07'3 5.7
2019-Feb-21 23:30N 17°57' W 063°08'3 5.5
2019-Feb-21 23:00N 17°60' W 063°09'2 4.6
2019-Feb-21 22:30N 18°02' W 063°10'2 4.2
2019-Feb-21 22:00N 18°04' W 063°10'2 3.4
2019-Feb-21 21:29N 18°05' W 063°08'2 4.4
2019-Feb-21 21:00N 18°05' W 063°06'1 0.8
2019-Feb-21 20:20N 18°04' W 063°06'0 0.0
2019-Feb-21 19:50N 18°04' W 063°06'0 0.1
2019-Feb-21 19:20N 18°04' W 063°06'0 0.0
2019-Feb-21 18:53N 18°04' W 063°06'0 0.0
2019-Feb-21 18:20N 18°04' W 063°06'0 0.0
2019-Feb-21 17:53N 18°04' W 063°06'0 0.0
2019-Feb-21 17:20N 18°04' W 063°06'0 0.0
2019-Feb-21 16:53N 18°04' W 063°06'0 0.0
2019-Feb-21 16:11N 18°04' W 063°06'0 0.0
2019-Feb-21 15:56N 18°04' W 063°06'0 0.0
2019-Feb-21 15:26N 18°04' W 063°06'0 0.0
2019-Feb-21 14:53N 18°04' W 063°06'0 0.0
2019-Feb-21 14:23N 18°04' W 063°06'0 0.0
2019-Feb-21 13:56N 18°04' W 063°06'0 0.0
2019-Feb-21 13:23N 18°04' W 063°06'0 0.0
2019-Feb-21 12:56N 18°04' W 063°06'0 0.0
2019-Feb-21 12:29N 18°04' W 063°06'0 0.0
2019-Feb-21 11:59N 18°04' W 063°06'0 0.0
2019-Feb-21 11:29N 18°04' W 063°06'0 0.0
2019-Feb-21 10:59N 18°04' W 063°06'0 0.0
2019-Feb-21 10:29N 18°04' W 063°06'0 0.0
2019-Feb-21 09:59N 18°04' W 063°06'0 0.0
2019-Feb-21 09:29N 18°04' W 063°06'0 0.0
2019-Feb-21 08:59N 18°04' W 063°06'0 0.0
2019-Feb-21 08:29N 18°04' W 063°06'0 0.0
2019-Feb-21 07:59N 18°04' W 063°06'0 0.0
2019-Feb-21 07:29N 18°04' W 063°06'0 0.0
2019-Feb-21 06:59N 18°04' W 063°06'0 0.0
2019-Feb-21 06:20N 18°04' W 063°06'0 0.0
2019-Feb-21 05:50N 18°04' W 063°06'0 0.0
2019-Feb-21 05:20N 18°04' W 063°06'0 0.0
2019-Feb-21 04:53N 18°04' W 063°06'0 0.0
2019-Feb-21 04:23N 18°04' W 063°06'0 0.0
2019-Feb-21 03:53N 18°04' W 063°06'0 0.0
2019-Feb-21 03:23N 18°04' W 063°06'0 0.0
2019-Feb-21 02:53N 18°04' W 063°06'0 0.0
2019-Feb-21 02:26N 18°04' W 063°06'0 0.0
2019-Feb-21 01:56N 18°04' W 063°06'0 0.0
2019-Feb-21 01:26N 18°04' W 063°06'0 0.0
2019-Feb-21 00:56N 18°04' W 063°06'0 0.0
2019-Feb-21 00:23N 18°04' W 063°06'0 0.0
2019-Feb-20 23:56N 18°04' W 063°06'0 0.0
2019-Feb-20 23:29N 18°04' W 063°06'0 0.0
2019-Feb-20 22:55N 18°04' W 063°06'0 0.0
2019-Feb-20 22:22N 18°04' W 063°06'0 0.0
2019-Feb-20 21:52N 18°04' W 063°06'0 0.0
2019-Feb-20 21:25N 18°04' W 063°06'0 0.0
2019-Feb-20 20:19N 18°04' W 063°06'0 0.0
2019-Feb-20 19:52N 18°04' W 063°06'0 0.0
2019-Feb-20 19:04N 18°04' W 063°06'0 0.0
2019-Feb-20 18:49N 18°04' W 063°06'0 0.0
2019-Feb-20 17:52N 18°04' W 063°06'0 0.0
2019-Feb-20 17:10N 18°04' W 063°06'0 0.0
2019-Feb-20 16:52N 18°04' W 063°06'0 0.0
2019-Feb-20 16:25N 18°04' W 063°06'0 0.0
2019-Feb-20 15:37N 18°04' W 063°06'0 0.1
2019-Feb-20 15:22N 18°04' W 063°06'0 0.0
2019-Feb-20 14:52N 18°04' W 063°06'0 0.0
2019-Feb-20 14:28N 18°04' W 063°06'0 0.0
2019-Feb-20 13:58N 18°04' W 063°06'0 0.0
2019-Feb-20 12:58N 18°04' W 063°06'0 0.0
2019-Feb-20 12:28N 18°04' W 063°06'0 0.0
2019-Feb-20 11:31N 18°04' W 063°06'0 0.1
2019-Feb-20 11:28N 18°04' W 063°06'0 0.0
2019-Feb-20 10:58N 18°04' W 063°06'0 0.0
2019-Feb-20 10:28N 18°04' W 063°06'0 0.0
2019-Feb-20 09:46N 18°04' W 063°06'0 0.0
2019-Feb-20 09:28N 18°04' W 063°06'0 0.0
2019-Feb-20 08:58N 18°04' W 063°06'0 0.0
2019-Feb-20 08:28N 18°04' W 063°06'0 0.0
2019-Feb-20 07:58N 18°04' W 063°06'0 0.0
2019-Feb-20 07:19N 18°04' W 063°06'0 0.0
2019-Feb-20 06:49N 18°04' W 063°06'0 0.0
2019-Feb-20 06:19N 18°04' W 063°06'0 0.0
2019-Feb-20 05:49N 18°04' W 063°06'0 0.0
2019-Feb-20 05:19N 18°04' W 063°06'0 0.0
2019-Feb-20 04:34N 18°04' W 063°06'0 0.0
2019-Feb-20 04:22N 18°04' W 063°06'0 0.0
2019-Feb-20 03:37N 18°04' W 063°06'0 0.0
2019-Feb-20 02:40N 18°04' W 063°06'0 0.0
2019-Feb-20 02:22N 18°04' W 063°06'0 0.0
2019-Feb-20 00:40N 18°04' W 063°06'0 0.0
2019-Feb-20 00:28N 18°04' W 063°06'  

Dump ship's entire track history